Time;durP1;ratioP1;P1;durP2;ratioP2;P2;SDS_P1;SDS_P2;PMS_P1;PMS_P2;Temp;Humidity;BMP_temperature;BMP_pressure;BME280_temperature;BME280_humidity;BME280_pressure;Samples;Min_cycle;Max_cycle;Signal;HPM_P1;HPM_P2
2022/03/11 00:00:40;;;;;;;2.60;2.50;;;;;;;-1.98;37.99;102538.61;104246;1281;140037;-77
2022/03/11 00:03:10;;;;;;;2.50;2.40;;;;;;;-2.04;37.52;102538.27;103981;1281;110044;-77
2022/03/11 00:05:40;;;;;;;2.70;2.60;;;;;;;-2.09;37.71;102541.64;104059;1280;139984;-77
2022/03/11 00:08:08;;;;;;;2.60;2.50;;;;;;;-2.07;37.93;102537.94;104113;1280;109338;-76
2022/03/11 00:10:36;;;;;;;2.60;2.50;;;;;;;-2.08;37.73;102537.84;104176;1280;97984;-77
2022/03/11 00:13:04;;;;;;;2.60;2.50;;;;;;;-2.12;37.93;102537.63;104132;1281;138616;-77
2022/03/11 00:15:32;;;;;;;2.60;2.50;;;;;;;-2.16;37.65;102536.65;104495;1281;109633;-77
2022/03/11 00:18:00;;;;;;;2.70;2.60;;;;;;;-2.19;38.00;102538.44;104387;1281;140516;-77
2022/03/11 00:20:28;;;;;;;2.90;2.80;;;;;;;-2.11;38.14;102536.65;104315;1281;109209;-77
2022/03/11 00:22:57;;;;;;;2.70;2.60;;;;;;;-2.01;38.41;102545.56;104193;1280;138898;-79
2022/03/11 00:25:25;;;;;;;2.60;2.50;;;;;;;-1.97;38.07;102547.05;103831;1281;539214;-77
2022/03/11 00:27:53;;;;;;;2.70;2.60;;;;;;;-1.98;38.22;102550.42;104227;1278;109686;-75
2022/03/11 00:30:21;;;;;;;2.70;2.60;;;;;;;-2.02;37.99;102547.63;103754;1281;139952;-75
2022/03/11 00:32:49;;;;;;;2.70;2.60;;;;;;;-1.99;38.11;102541.70;103798;1281;109531;-76
2022/03/11 00:35:16;;;;;;;2.60;2.50;;;;;;;-1.96;38.41;102542.20;103740;1281;140146;-76
2022/03/11 00:37:44;;;;;;;2.80;2.70;;;;;;;-1.99;38.11;102543.76;104176;1280;95262;-76
2022/03/11 00:40:13;;;;;;;2.60;2.50;;;;;;;-1.99;38.12;102542.02;104198;1281;110170;-76
2022/03/11 00:42:41;;;;;;;2.80;2.70;;;;;;;-1.94;38.33;102543.41;104121;1281;140494;-77
2022/03/11 00:45:09;;;;;;;2.70;2.60;;;;;;;-1.96;38.15;102543.63;104110;1279;109551;-76
2022/03/11 00:47:37;;;;;;;3.00;2.90;;;;;;;-1.98;38.39;102541.59;104034;1281;139976;-77
2022/03/11 00:50:05;;;;;;;2.60;2.50;;;;;;;-2.05;38.26;102540.33;104188;1278;95151;-77
2022/03/11 00:52:33;;;;;;;2.70;2.60;;;;;;;-2.06;38.18;102539.73;104104;1281;110687;-77
2022/03/11 00:55:04;;;;;;;2.80;2.70;;;;;;;-2.07;38.02;102543.84;104005;1281;141086;-75
2022/03/11 00:57:32;;;;;;;2.60;2.50;;;;;;;-2.10;37.99;102549.05;103920;1281;109554;-76
2022/03/11 01:00:00;;;;;;;2.70;2.60;;;;;;;-2.10;38.11;102550.63;104026;1281;140446;-76
2022/03/11 01:02:33;;;;;;;2.60;2.50;;;;;;;-2.08;37.80;102549.54;104170;1277;95708;-76
2022/03/11 01:05:03;;;;;;;2.70;2.60;;;;;;;-2.05;37.80;102544.48;104059;1280;140130;-74
2022/03/11 01:07:32;;;;;;;2.70;2.60;;;;;;;-2.02;37.83;102543.95;104560;1278;98519;-76
2022/03/11 01:10:00;;;;;;;2.60;2.50;;;;;;;-1.99;37.85;102545.84;103900;1281;108823;-76
2022/03/11 01:12:28;;;;;;;2.60;2.50;;;;;;;-1.97;37.96;102543.55;104002;1281;139791;-76
2022/03/11 01:14:56;;;;;;;2.80;2.70;;;;;;;-1.97;37.51;102548.77;104128;1281;95241;-76
2022/03/11 01:17:24;;;;;;;2.70;2.60;;;;;;;-2.05;37.89;102545.55;104044;1278;141035;-76
2022/03/11 01:19:52;;;;;;;2.70;2.60;;;;;;;-2.05;37.56;102543.25;104083;1279;98930;-75
2022/03/11 01:22:20;;;;;;;2.50;2.40;;;;;;;-2.08;37.44;102545.66;104186;1281;108010;-76
2022/03/11 01:24:48;;;;;;;2.80;2.70;;;;;;;-2.14;37.53;102543.42;104194;1281;139934;-76
2022/03/11 01:27:17;;;;;;;2.60;2.50;;;;;;;-2.16;37.53;102539.64;104147;1281;95934;-75
2022/03/11 01:29:45;;;;;;;2.60;2.50;;;;;;;-2.11;38.01;102545.32;103929;1279;139197;-75
2022/03/11 01:32:12;;;;;;;2.60;2.50;;;;;;;-2.06;38.02;102543.88;103903;1281;98830;-76
2022/03/11 01:34:40;;;;;;;2.60;2.50;;;;;;;-2.04;37.92;102544.38;103940;1281;108690;-76
2022/03/11 01:37:08;;;;;;;2.50;2.40;;;;;;;-2.04;37.78;102545.23;103984;1281;139474;-75
2022/03/11 01:39:38;;;;;;;2.70;2.60;;;;;;;-2.09;37.48;102545.45;104110;1281;95208;-78
2022/03/11 01:42:06;;;;;;;2.70;2.60;;;;;;;-2.16;37.65;102551.08;104068;1281;139791;-76
2022/03/11 01:44:35;;;;;;;2.50;2.40;;;;;;;-2.16;37.90;102553.40;104259;1281;97858;-75
2022/03/11 01:47:09;;;;;;;2.80;2.70;;;;;;;-2.12;38.26;102553.43;103999;1281;139980;-76
2022/03/11 01:49:36;;;;;;;2.60;2.50;;;;;;;-2.09;38.00;102558.70;104050;1281;95317;-74
2022/03/11 01:52:04;;;;;;;2.60;2.50;;;;;;;-2.10;38.33;102554.96;104082;1281;95349;-76
2022/03/11 01:54:33;;;;;;;2.80;2.70;;;;;;;-2.05;38.54;102563.48;103988;1281;139828;-76
2022/03/11 01:57:01;;;;;;;2.60;2.50;;;;;;;-1.93;38.99;102565.38;104093;1281;99622;-77
2022/03/11 01:59:29;;;;;;;2.70;2.60;;;;;;;-1.87;38.89;102568.04;104003;1281;139822;-75
2022/03/11 02:01:56;;;;;;;2.60;2.50;;;;;;;-1.87;38.71;102570.77;104099;1281;95685;-74
2022/03/11 02:04:24;;;;;;;2.90;2.80;;;;;;;-1.82;38.98;102565.13;104092;1281;95124;-74
2022/03/11 02:06:53;;;;;;;2.60;2.50;;;;;;;-1.82;38.76;102564.31;103873;1281;139497;-73
2022/03/11 02:09:20;;;;;;;2.90;2.80;;;;;;;-1.82;38.97;102564.27;104192;1281;100020;-74
2022/03/11 02:11:48;;;;;;;2.70;2.60;;;;;;;-1.83;38.95;102566.17;104088;1281;140283;-73
2022/03/11 02:14:16;;;;;;;2.60;2.50;;;;;;;-1.82;39.14;102570.34;104152;1281;95764;-74
2022/03/11 02:16:44;;;;;;;2.60;2.50;;;;;;;-1.83;39.23;102572.58;104070;1280;95360;-74
2022/03/11 02:19:12;;;;;;;2.80;2.70;;;;;;;-1.81;39.49;102569.38;104030;1278;139482;-73
2022/03/11 02:21:48;;;;;;;2.60;2.50;;;;;;;-1.83;39.42;102568.42;104098;1280;100329;-74
2022/03/11 02:24:17;;;;;;;2.70;2.60;;;;;;;-1.94;39.04;102568.46;104009;1280;141611;-72
2022/03/11 02:26:44;;;;;;;2.60;2.50;;;;;;;-2.00;39.21;102572.45;104151;1281;95253;-74
2022/03/11 02:29:12;;;;;;;2.60;2.50;;;;;;;-2.05;39.06;102567.95;104068;1281;139912;-74
2022/03/11 02:31:40;;;;;;;2.70;2.60;;;;;;;-2.17;39.13;102566.88;104117;1280;110137;-73
2022/03/11 02:34:08;;;;;;;2.60;2.50;;;;;;;-2.24;39.17;102565.61;104156;1279;100501;-74
2022/03/11 02:36:36;;;;;;;2.80;2.70;;;;;;;-2.36;39.16;102568.38;104008;1280;139636;-74
2022/03/11 02:39:06;;;;;;;3.00;2.90;;;;;;;-2.44;39.34;102569.24;104131;1280;95768;-74
2022/03/11 02:41:34;;;;;;;2.80;2.70;;;;;;;-2.45;39.68;102567.28;104000;1280;140549;-74
2022/03/11 02:44:02;;;;;;;2.80;2.70;;;;;;;-2.44;39.47;102566.66;104082;1279;107059;-74
2022/03/11 02:46:29;;;;;;;2.70;2.60;;;;;;;-2.40;39.64;102564.48;104122;1278;99877;-74
2022/03/11 02:48:58;;;;;;;2.80;2.70;;;;;;;-2.36;39.82;102565.92;104037;1280;139504;-73
2022/03/11 02:51:26;;;;;;;2.90;2.80;;;;;;;-2.34;39.75;102569.87;104092;1279;95675;-73
2022/03/11 02:53:53;;;;;;;2.70;2.60;;;;;;;-2.36;39.98;102568.55;104040;1280;139659;-74
2022/03/11 02:56:22;;;;;;;2.60;2.50;;;;;;;-2.30;40.20;102568.16;104112;1280;110133;-73
2022/03/11 02:58:51;;;;;;;2.80;2.70;;;;;;;-2.22;40.28;102568.88;104129;1279;99401;-74
2022/03/11 03:01:19;;;;;;;2.80;2.70;;;;;;;-2.17;40.42;102566.19;104046;1280;139741;-74
2022/03/11 03:03:47;;;;;;;2.70;2.60;;;;;;;-2.23;39.96;102570.02;103843;1281;95688;-74
2022/03/11 03:06:15;;;;;;;2.80;2.70;;;;;;;-2.30;39.89;102573.92;103988;1279;140082;-74
2022/03/11 03:08:43;;;;;;;2.70;2.60;;;;;;;-2.34;39.85;102574.89;104078;1281;109785;-74
2022/03/11 03:11:10;;;;;;;2.70;2.60;;;;;;;-2.35;40.19;102575.22;103996;1278;140714;-74
2022/03/11 03:13:38;;;;;;;2.80;2.70;;;;;;;-2.28;40.43;102575.28;104138;1278;109296;-74
2022/03/11 03:16:06;;;;;;;2.70;2.60;;;;;;;-2.28;40.09;102579.09;104217;1280;95568;-74
2022/03/11 03:18:38;;;;;;;2.60;2.50;;;;;;;-2.32;40.20;102577.47;104414;1280;138732;-75
2022/03/11 03:21:14;;;;;;;2.60;2.50;;;;;;;-2.28;40.43;102577.38;104263;1281;109275;-74
2022/03/11 03:23:41;;;;;;;3.00;2.90;;;;;;;-2.28;40.25;102573.88;104002;1281;139711;-74
2022/03/11 03:26:09;;;;;;;2.90;2.80;;;;;;;-2.35;40.00;102572.27;104072;1280;108873;-74
2022/03/11 03:28:37;;;;;;;2.70;2.60;;;;;;;-2.47;40.03;102566.61;103784;1281;95231;-73
2022/03/11 03:31:06;;;;;;;2.80;2.70;;;;;;;-2.50;40.01;102565.56;104076;1280;139829;-74
2022/03/11 03:33:34;;;;;;;2.70;2.60;;;;;;;-2.54;39.91;102563.80;104069;1280;108806;-74
2022/03/11 03:36:01;;;;;;;2.80;2.70;;;;;;;-2.62;39.93;102564.52;104014;1280;139944;-74
2022/03/11 03:38:29;;;;;;;3.20;3.10;;;;;;;-2.65;40.10;102567.58;104054;1278;108301;-74
2022/03/11 03:40:57;;;;;;;2.70;2.60;;;;;;;-2.72;40.17;102564.23;103933;1279;140150;-74
2022/03/11 03:43:25;;;;;;;3.00;2.90;;;;;;;-2.74;40.23;102569.66;103890;1281;95368;-74
2022/03/11 03:45:52;;;;;;;2.70;2.60;;;;;;;-2.76;40.42;102572.30;104062;1280;110491;-74
2022/03/11 03:48:20;;;;;;;2.90;2.80;;;;;;;-2.70;40.65;102572.38;103946;1280;139974;-73
2022/03/11 03:50:48;;;;;;;2.90;2.80;;;;;;;-2.73;40.25;102575.98;104110;1279;109877;-74
2022/03/11 03:53:15;;;;;;;2.70;2.60;;;;;;;-2.73;40.19;102575.27;103971;1279;140002;-74
2022/03/11 03:55:44;;;;;;;2.70;2.60;;;;;;;-2.78;40.23;102571.14;103746;1281;95167;-73
2022/03/11 03:58:11;;;;;;;2.80;2.70;;;;;;;-2.77;40.62;102574.47;104276;1279;110127;-74
2022/03/11 04:00:39;;;;;;;3.00;2.90;;;;;;;-2.75;40.69;102571.17;103662;1281;140001;-74
2022/03/11 04:03:07;;;;;;;3.00;2.90;;;;;;;-2.75;40.62;102572.41;103839;1281;109563;-73
2022/03/11 04:05:35;;;;;;;2.80;2.70;;;;;;;-2.72;40.95;102573.27;103725;1280;140436;-74
2022/03/11 04:08:03;;;;;;;3.00;2.90;;;;;;;-2.69;40.70;102570.15;104020;1279;95264;-74
2022/03/11 04:10:31;;;;;;;2.80;2.70;;;;;;;-2.66;41.13;102563.22;103945;1281;110399;-74
2022/03/11 04:12:58;;;;;;;2.70;2.60;;;;;;;-2.66;41.16;102564.26;103723;1281;139614;-74
2022/03/11 04:15:26;;;;;;;3.00;2.90;;;;;;;-2.64;41.22;102568.52;104069;1279;109256;-74
2022/03/11 04:17:54;;;;;;;3.20;3.10;;;;;;;-2.67;41.22;102573.55;103984;1279;139877;-74
2022/03/11 04:20:21;;;;;;;2.90;2.80;;;;;;;-2.69;41.24;102572.96;104092;1278;95366;-74
2022/03/11 04:22:49;;;;;;;2.80;2.70;;;;;;;-2.80;40.96;102574.17;104070;1278;109862;-74
2022/03/11 04:25:17;;;;;;;2.90;2.80;;;;;;;-2.81;41.05;102570.95;103973;1279;139452;-74
2022/03/11 04:27:45;;;;;;;2.80;2.70;;;;;;;-2.89;40.94;102572.55;104028;1279;107976;-75
2022/03/11 04:30:14;;;;;;;3.00;2.90;;;;;;;-2.99;40.98;102572.78;103964;1279;140404;-74
2022/03/11 04:32:42;;;;;;;2.90;2.80;;;;;;;-2.98;41.33;102572.13;104072;1280;95255;-73
2022/03/11 04:35:10;;;;;;;2.90;2.80;;;;;;;-2.95;41.47;102575.96;103993;1279;140574;-74
2022/03/11 04:37:37;;;;;;;3.10;3.00;;;;;;;-2.89;41.48;102578.29;104057;1280;100030;-74
2022/03/11 04:40:07;;;;;;;2.90;2.80;;;;;;;-2.93;41.58;102574.94;103957;1280;109337;-75
2022/03/11 04:42:35;;;;;;;3.20;3.10;;;;;;;-2.97;41.77;102572.55;103657;1281;140382;-74
2022/03/11 04:45:04;;;;;;;2.80;2.70;;;;;;;-3.04;41.82;102571.23;103738;1281;95257;-73
2022/03/11 04:47:31;;;;;;;2.90;2.80;;;;;;;-3.11;41.72;102571.48;103989;1280;140237;-74
2022/03/11 04:50:00;;;;;;;2.90;2.80;;;;;;;-3.09;42.13;102572.16;104096;1281;98276;-74
2022/03/11 04:52:28;;;;;;;3.10;3.00;;;;;;;-3.04;42.09;102568.64;104025;1281;111648;-74
2022/03/11 04:54:55;;;;;;;3.00;2.90;;;;;;;-3.09;41.83;102569.87;103729;1280;140420;-76
2022/03/11 04:57:23;;;;;;;2.90;2.80;;;;;;;-3.07;42.01;102569.69;103994;1281;95675;-74
2022/03/11 04:59:51;;;;;;;3.10;3.00;;;;;;;-3.00;42.13;102567.16;103940;1281;141064;-74
2022/03/11 05:02:28;;;;;;;3.10;3.00;;;;;;;-2.92;42.15;102567.34;104089;1280;100143;-74
2022/03/11 05:04:56;;;;;;;3.00;2.90;;;;;;;-2.84;42.11;102563.48;104028;1281;108346;-73
2022/03/11 05:07:24;;;;;;;3.00;2.90;;;;;;;-2.85;42.08;102570.02;103994;1280;139105;-74
2022/03/11 05:09:51;;;;;;;2.90;2.80;;;;;;;-2.89;41.95;102568.73;104115;1281;95257;-73
2022/03/11 05:12:19;;;;;;;3.00;2.90;;;;;;;-2.89;42.09;102566.98;103959;1281;139115;-75
2022/03/11 05:14:50;;;;;;;3.10;3.00;;;;;;;-2.90;42.10;102570.05;104116;1281;99966;-75
2022/03/11 05:17:18;;;;;;;3.00;2.90;;;;;;;-2.89;42.00;102573.60;103939;1279;140488;-74
2022/03/11 05:19:46;;;;;;;3.00;2.90;;;;;;;-2.98;42.15;102565.85;103989;1281;95350;-73
2022/03/11 05:22:14;;;;;;;3.10;3.00;;;;;;;-2.95;42.19;102572.02;104071;1280;95209;-74
2022/03/11 05:24:44;;;;;;;3.00;2.90;;;;;;;-2.91;42.69;102571.42;103867;1281;140062;-74
2022/03/11 05:27:14;;;;;;;3.00;2.90;;;;;;;-2.83;42.60;102571.02;104078;1281;99897;-75
2022/03/11 05:29:42;;;;;;;3.10;3.00;;;;;;;-2.79;42.62;102572.11;103952;1281;140877;-75
2022/03/11 05:32:10;;;;;;;3.10;3.00;;;;;;;-2.79;42.57;102572.48;103806;1281;95887;-74
2022/03/11 05:34:42;;;;;;;3.10;3.00;;;;;;;-2.70;42.63;102572.86;104230;1281;95895;-75
2022/03/11 05:37:10;;;;;;;3.00;2.90;;;;;;;-2.69;42.19;102568.60;104180;1280;139785;-74
2022/03/11 05:39:38;;;;;;;3.20;3.10;;;;;;;-2.84;42.00;102576.69;104211;1281;99833;-76
2022/03/11 05:42:07;;;;;;;3.10;3.00;;;;;;;-2.89;42.19;102579.67;103984;1280;139836;-74
2022/03/11 05:44:35;;;;;;;3.10;3.00;;;;;;;-2.79;42.70;102580.82;104069;1281;95244;-73
2022/03/11 05:47:03;;;;;;;3.00;2.90;;;;;;;-2.70;42.98;102588.15;103859;1281;139894;-74
2022/03/11 05:49:31;;;;;;;3.00;2.90;;;;;;;-2.61;42.87;102594.27;103995;1281;110189;-75
2022/03/11 05:51:58;;;;;;;3.20;3.10;;;;;;;-2.59;42.21;102595.44;103886;1281;99803;-75
2022/03/11 05:54:26;;;;;;;2.90;2.80;;;;;;;-2.67;42.05;102601.23;103594;1282;139275;-73
2022/03/11 05:56:55;;;;;;;2.90;2.80;;;;;;;-2.70;41.99;102602.64;104008;1281;95266;-74
2022/03/11 05:59:23;;;;;;;3.10;3.00;;;;;;;-2.73;41.67;102603.46;103797;1281;140741;-73
2022/03/11 06:01:51;;;;;;;2.80;2.70;;;;;;;-2.77;41.13;102603.54;103847;1281;110553;-73
2022/03/11 06:04:19;;;;;;;3.00;2.90;;;;;;;-2.82;40.94;102603.40;103988;1280;99998;-73
2022/03/11 06:06:47;;;;;;;2.90;2.80;;;;;;;-2.81;41.11;102602.42;103935;1281;139847;-74
2022/03/11 06:09:14;;;;;;;2.90;2.80;;;;;;;-2.69;41.25;102607.52;103906;1281;95257;-75
2022/03/11 06:11:42;;;;;;;2.70;2.60;;;;;;;-2.57;40.58;102606.70;103819;1280;139554;-74
2022/03/11 06:14:10;;;;;;;2.80;2.70;;;;;;;-2.47;40.42;102608.06;103928;1281;110183;-74
2022/03/11 06:16:40;;;;;;;2.90;2.80;;;;;;;-2.35;40.89;102602.88;103864;1281;99840;-73
2022/03/11 06:19:08;;;;;;;2.70;2.60;;;;;;;-2.31;39.49;102600.66;103802;1281;139594;-74
2022/03/11 06:21:35;;;;;;;2.90;2.80;;;;;;;-2.35;39.29;102603.72;103907;1281;95394;-75
2022/03/11 06:24:03;;;;;;;2.60;2.50;;;;;;;-2.33;38.79;102601.74;103844;1281;140093;-76
2022/03/11 06:26:31;;;;;;;2.70;2.60;;;;;;;-2.33;38.69;102609.95;103942;1281;109363;-74
2022/03/11 06:28:59;;;;;;;2.60;2.50;;;;;;;-2.32;38.79;102604.77;103904;1281;99441;-74
2022/03/11 06:31:27;;;;;;;2.80;2.70;;;;;;;-2.30;38.72;102607.86;103847;1281;140820;-74
2022/03/11 06:33:54;;;;;;;2.60;2.50;;;;;;;-2.31;38.27;102610.08;104103;1281;95177;-73
2022/03/11 06:36:22;;;;;;;2.80;2.70;;;;;;;-2.25;39.10;102606.64;104014;1280;140181;-74
2022/03/11 06:38:50;;;;;;;2.80;2.70;;;;;;;-2.08;39.36;102610.28;104065;1281;110152;-74
2022/03/11 06:41:18;;;;;;;2.60;2.50;;;;;;;-1.89;38.74;102609.67;103887;1281;139846;-73
2022/03/11 06:43:46;;;;;;;2.70;2.60;;;;;;;-1.84;37.57;102612.23;103940;1281;107608;-73
2022/03/11 06:46:19;;;;;;;2.90;2.80;;;;;;;-1.85;37.39;102610.59;103938;1281;95452;-74
2022/03/11 06:48:47;;;;;;;2.60;2.50;;;;;;;-1.88;36.90;102612.16;103665;1282;140463;-74
2022/03/11 06:51:15;;;;;;;2.60;2.50;;;;;;;-1.95;36.61;102616.47;103875;1282;109724;-74
2022/03/11 06:53:43;;;;;;;2.50;2.40;;;;;;;-1.98;36.46;102613.12;104007;1281;140475;-74
2022/03/11 06:56:10;;;;;;;2.60;2.50;;;;;;;-1.94;36.37;102614.60;103894;1281;109414;-73
2022/03/11 06:58:38;;;;;;;2.50;2.40;;;;;;;-1.85;36.23;102613.21;103941;1281;95869;-75
2022/03/11 07:01:06;;;;;;;2.40;2.30;;;;;;;-1.69;36.36;102614.15;103898;1281;139324;-73
2022/03/11 07:03:34;;;;;;;2.40;2.30;;;;;;;-1.61;36.15;102611.65;104016;1281;110359;-73
2022/03/11 07:06:02;;;;;;;2.50;2.40;;;;;;;-1.50;36.63;102610.58;103945;1281;141047;-77
2022/03/11 07:08:30;;;;;;;2.40;2.30;;;;;;;-1.36;36.18;102610.38;104349;1281;109485;-77
2022/03/11 07:10:59;;;;;;;2.30;2.20;;;;;;;-1.27;35.99;102614.54;104246;1281;95688;-77
2022/03/11 07:13:27;;;;;;;2.30;2.20;;;;;;;-1.32;35.03;102613.70;104059;1281;140031;-76
2022/03/11 07:15:56;;;;;;;2.70;2.60;;;;;;;-1.38;35.27;102613.70;104099;1281;108901;-76
2022/03/11 07:18:24;;;;;;;2.40;2.30;;;;;;;-1.35;35.83;102615.11;103819;1281;139861;-76
2022/03/11 07:20:52;;;;;;;2.30;2.20;;;;;;;-1.35;35.44;102615.27;103977;1281;109308;-75
2022/03/11 07:23:28;;;;;;;2.20;2.10;;;;;;;-1.32;34.80;102616.69;103774;1281;140362;-75
2022/03/11 07:25:56;;;;;;;2.30;2.20;;;;;;;-1.23;34.78;102619.66;103864;1281;95172;-75
2022/03/11 07:28:27;;;;;;;2.40;2.30;;;;;;;-1.09;35.05;102618.66;104071;1281;109720;-74
2022/03/11 07:30:55;;;;;;;2.20;2.10;;;;;;;-0.92;34.65;102618.77;103840;1281;140184;-74
2022/03/11 07:33:23;;;;;;;2.30;2.20;;;;;;;-0.79;34.36;102616.36;104028;1281;109185;-74
2022/03/11 07:35:51;;;;;;;2.50;2.40;;;;;;;-0.70;34.06;102616.33;103916;1281;140024;-75
2022/03/11 07:38:18;;;;;;;1.90;1.90;;;;;;;-0.64;33.13;102620.83;104022;1281;95240;-74
2022/03/11 07:40:46;;;;;;;2.20;2.10;;;;;;;-0.68;31.72;102620.29;104089;1281;110576;-75
2022/03/11 07:43:14;;;;;;;2.20;2.10;;;;;;;-0.68;32.11;102622.52;104190;1282;139374;-76
2022/03/11 07:45:42;;;;;;;2.10;2.10;;;;;;;-0.66;31.38;102624.77;104321;1281;109428;-75
2022/03/11 07:48:10;;;;;;;1.90;1.90;;;;;;;-0.67;31.15;102623.14;104351;1281;139637;-74
2022/03/11 07:50:39;;;;;;;2.00;2.00;;;;;;;-0.65;31.39;102626.70;104360;1281;96466;-74
2022/03/11 07:53:07;;;;;;;2.60;2.50;;;;;;;-0.62;30.77;102626.01;103972;1281;139854;-77
2022/03/11 07:55:35;;;;;;;2.00;2.00;;;;;;;-0.63;30.23;102628.41;104140;1281;99097;-74
2022/03/11 07:58:03;;;;;;;2.00;2.00;;;;;;;-0.63;30.08;102628.42;103975;1281;109375;-74
2022/03/11 08:00:31;;;;;;;2.20;2.10;;;;;;;-0.53;30.27;102629.14;104114;1281;139738;-74
2022/03/11 08:03:00;;;;;;;1.90;1.90;;;;;;;-0.46;30.08;102628.11;104256;1281;95343;-74
2022/03/11 08:05:30;;;;;;;2.00;2.00;;;;;;;-0.33;30.26;102626.56;104213;1281;138827;-73
2022/03/11 08:07:58;;;;;;;2.20;2.10;;;;;;;-0.22;29.54;102619.65;103999;1281;99897;-73
2022/03/11 08:10:27;;;;;;;1.90;1.90;;;;;;;-0.15;28.88;102616.17;103844;1282;109555;-74
2022/03/11 08:12:54;;;;;;;1.80;1.80;;;;;;;-0.06;29.09;102616.13;103876;1281;141248;-73
2022/03/11 08:15:23;;;;;;;1.90;1.90;;;;;;;-0.00;29.28;102618.70;104044;1281;95636;-73
2022/03/11 08:17:52;;;;;;;1.80;1.80;;;;;;;0.17;29.56;102613.31;103765;1282;139021;-73
2022/03/11 08:20:21;;;;;;;2.00;2.00;;;;;;;0.30;28.22;102613.13;104021;1281;99930;-73
2022/03/11 08:22:50;;;;;;;1.80;1.80;;;;;;;0.32;28.37;102614.45;103888;1281;108916;-74
2022/03/11 08:25:20;;;;;;;1.80;1.80;;;;;;;0.37;29.25;102614.85;103981;1281;139075;-73
2022/03/11 08:27:48;;;;;;;1.70;1.70;;;;;;;0.50;29.49;102614.48;103988;1282;95885;-72
2022/03/11 08:30:18;;;;;;;1.80;1.80;;;;;;;0.70;29.14;102612.33;103870;1282;139947;-75
2022/03/11 08:32:46;;;;;;;1.80;1.80;;;;;;;0.88;28.73;102613.73;104068;1281;100093;-74
2022/03/11 08:35:17;;;;;;;1.80;1.80;;;;;;;0.97;27.95;102612.42;104204;1281;139951;-74
2022/03/11 08:37:45;;;;;;;1.60;1.60;;;;;;;1.02;28.50;102613.01;104327;1281;95760;-75
2022/03/11 08:40:14;;;;;;;1.70;1.70;;;;;;;1.17;27.89;102611.47;104155;1280;95250;-74
2022/03/11 08:42:42;;;;;;;1.60;1.60;;;;;;;1.20;27.08;102611.05;103959;1281;139309;-75
2022/03/11 08:45:10;;;;;;;1.60;1.60;;;;;;;1.27;27.09;102614.55;104074;1281;99938;-76
2022/03/11 08:47:44;;;;;;;1.50;1.50;;;;;;;1.38;25.95;102615.95;104017;1281;139814;-74
2022/03/11 08:50:12;;;;;;;1.40;1.40;;;;;;;1.41;25.72;102612.26;104084;1281;95259;-75
2022/03/11 08:52:40;;;;;;;1.50;1.50;;;;;;;1.42;25.82;102608.44;104133;1281;95493;-75
2022/03/11 08:55:09;;;;;;;1.50;1.50;;;;;;;1.59;26.54;102605.52;104061;1281;138349;-75
2022/03/11 08:57:37;;;;;;;1.50;1.50;;;;;;;1.70;26.06;102602.88;104156;1281;99699;-74
2022/03/11 09:00:13;;;;;;;1.50;1.50;;;;;;;1.83;25.88;102600.35;103977;1281;139430;-75
2022/03/11 09:02:41;;;;;;;1.50;1.50;;;;;;;1.90;25.46;102598.53;104250;1281;95690;-74
2022/03/11 09:05:10;;;;;;;1.40;1.40;;;;;;;2.00;25.76;102597.41;103999;1281;139318;-74
2022/03/11 09:07:38;;;;;;;1.90;1.90;;;;;;;2.03;24.77;102601.92;104006;1279;110173;-73
2022/03/11 09:10:09;;;;;;;2.30;2.20;;;;;;;2.43;25.63;102600.13;104095;1281;98397;-73
2022/03/11 09:12:38;;;;;;;2.30;2.20;;;;;;;4.97;24.95;102585.89;103968;1281;139733;-74
2022/03/11 09:15:08;;;;;;;1.80;1.80;;;;;;;7.79;20.68;102578.20;104108;1281;97633;-74
2022/03/11 09:17:36;;;;;;;1.20;1.20;;;;;;;9.72;18.70;102571.27;103912;1281;139076;-74
2022/03/11 09:20:06;;;;;;;1.20;1.20;;;;;;;11.20;16.26;102568.94;103908;1281;110018;-74
2022/03/11 09:22:42;;;;;;;0.90;0.90;;;;;;;12.73;15.85;102562.44;103652;1284;98556;-75
2022/03/11 09:25:11;;;;;;;0.70;0.70;;;;;;;14.20;14.45;102557.33;103982;1281;139677;-73
2022/03/11 09:27:39;;;;;;;0.40;0.20;;;;;;;14.61;13.02;102554.35;104091;1281;95190;-75
2022/03/11 09:30:08;;;;;;;0.40;0.30;;;;;;;14.28;13.68;102557.26;103959;1281;139592;-74
2022/03/11 09:32:37;;;;;;;0.40;0.20;;;;;;;13.52;14.93;102559.65;104109;1280;110384;-73
2022/03/11 09:35:06;;;;;;;0.50;0.50;;;;;;;13.03;15.60;102558.69;103949;1281;98848;-74
2022/03/11 09:37:34;;;;;;;0.80;0.80;;;;;;;13.31;14.76;102560.41;103829;1282;139449;-73
2022/03/11 09:40:04;;;;;;;0.40;0.30;;;;;;;14.52;13.57;102558.34;104140;1281;95169;-73
2022/03/11 09:42:32;;;;;;;0.40;0.40;;;;;;;15.49;13.94;102552.20;103801;1281;139442;-74
2022/03/11 09:44:59;;;;;;;0.40;0.30;;;;;;;15.79;13.17;102552.02;104209;1279;110501;-74
2022/03/11 09:47:27;;;;;;;0.40;0.30;;;;;;;15.91;12.30;102551.34;104138;1280;140549;-74
2022/03/11 09:49:55;;;;;;;0.40;0.30;;;;;;;16.23;13.09;102549.23;104210;1280;109369;-74
2022/03/11 09:52:26;;;;;;;0.40;0.30;;;;;;;17.11;11.66;102539.35;104306;1280;95213;-74
2022/03/11 09:54:53;;;;;;;0.40;0.30;;;;;;;17.76;12.21;102538.52;104216;1279;140032;-74
2022/03/11 09:57:26;;;;;;;0.40;0.30;;;;;;;18.42;11.11;102542.59;104287;1279;110482;-74
2022/03/11 09:59:56;;;;;;;0.40;0.20;;;;;;;19.09;10.72;102538.89;104179;1281;140428;-75
2022/03/11 10:02:25;;;;;;;0.40;0.20;;;;;;;19.75;10.72;102535.38;104338;1281;109245;-74
2022/03/11 10:04:57;;;;;;;0.40;0.20;;;;;;;20.99;10.10;102529.66;104163;1279;95914;-74
2022/03/11 10:07:58;;;;;;;0.40;0.10;;;;;;;20.75;8.36;102536.45;104142;1280;139619;-74
2022/03/11 10:10:26;;;;;;;0.40;0.10;;;;;;;20.24;9.12;102535.67;104308;1279;111044;-74
2022/03/11 10:13:11;;;;;;;0.40;0.10;;;;;;;19.94;8.66;102539.27;104168;1281;140941;-74
2022/03/11 10:15:40;;;;;;;0.40;0.10;;;;;;;20.02;8.84;102535.98;104257;1281;108294;-75
2022/03/11 10:18:14;;;;;;;0.40;0.10;;;;;;;19.90;8.38;102533.12;104059;1279;139174;-74
2022/03/11 10:20:42;;;;;;;0.40;0.10;;;;;;;20.64;9.90;102523.80;104275;1279;96340;-74
2022/03/11 10:23:12;;;;;;;0.40;0.10;;;;;;;21.84;9.09;102522.89;104298;1280;109000;-75
2022/03/11 10:25:40;;;;;;;0.40;0.10;;;;;;;22.86;8.92;102517.77;105401;1279;139447;-75
2022/03/11 10:28:13;;;;;;;0.40;0.10;;;;;;;23.11;8.10;102515.38;104280;1279;109335;-75
2022/03/11 10:30:42;;;;;;;0.40;0.10;;;;;;;22.81;8.17;102511.27;104355;1279;139658;-75
2022/03/11 10:33:14;;;;;;;0.40;0.10;;;;;;;23.06;7.85;102509.59;104245;1279;95847;-74
2022/03/11 10:35:47;;;;;;;0.40;0.00;;;;;;;22.56;7.38;102517.58;104035;1279;138687;-75
2022/03/11 10:38:18;;;;;;;0.40;0.10;;;;;;;22.55;8.50;102512.90;104389;1281;99562;-75
2022/03/11 10:40:54;;;;;;;0.40;0.10;;;;;;;22.43;7.31;102513.59;104135;1281;109152;-74
2022/03/11 10:43:27;;;;;;;0.40;0.00;;;;;;;21.90;7.90;102511.80;104215;1279;139538;-76
2022/03/11 10:45:56;;;;;;;0.40;0.00;;;;;;;22.27;8.39;102500.55;104468;1279;96455;-76
2022/03/11 10:48:51;;;;;;;0.40;0.10;;;;;;;21.38;8.52;102506.66;104102;1281;139908;-76
2022/03/11 10:51:22;;;;;;;2.00;1.90;;;;;;;19.72;8.68;102513.85;104211;1279;98929;-75
2022/03/11 10:53:50;;;;;;;2.20;2.10;;;;;;;18.68;9.44;102512.57;103997;1280;140572;-76
2022/03/11 10:56:34;;;;;;;3.20;3.10;;;;;;;16.72;10.64;102516.50;104131;1281;95340;-74
2022/03/11 10:59:04;;;;;;;4.80;4.60;;;;;;;15.26;11.49;102517.73;104245;1281;95263;-72
2022/03/11 11:01:38;;;;;;;6.30;6.10;;;;;;;13.74;12.07;102523.64;104077;1281;139605;-74
2022/03/11 11:04:08;;;;;;;6.20;6.00;;;;;;;12.12;12.82;102525.15;104184;1280;100075;-75
2022/03/11 11:06:37;;;;;;;11.10;10.70;;;;;;;10.75;13.52;102528.46;103939;1281;138749;-75
2022/03/11 11:09:06;;;;;;;11.00;10.60;;;;;;;9.93;15.11;102529.86;104212;1280;95976;-74
2022/03/11 11:11:34;;;;;;;11.80;11.40;;;;;;;9.50;15.15;102531.65;104061;1279;139995;-75
2022/03/11 11:14:05;;;;;;;14.90;14.40;;;;;;;8.68;15.29;102533.30;104206;1281;108593;-75
2022/03/11 11:16:39;;;;;;;16.20;15.60;;;;;;;8.01;16.00;102538.17;104150;1281;98323;-73
2022/03/11 11:19:10;;;;;;;17.30;16.60;;;;;;;7.80;17.26;102532.82;103821;1281;139754;-75